sensor_id;sensor_type;location;lat;lon;timestamp;pressure;altitude;pressure_sealevel;temperature
74915;BMP280;63475;45.140;-75.616;2022-09-27T00:00:13;99139.69;;;14.06
74915;BMP280;63475;45.140;-75.616;2022-09-27T00:01:15;99097.31;;;13.78
74915;BMP280;63475;45.140;-75.616;2022-09-27T00:02:16;99137.47;;;14.04
74915;BMP280;63475;45.140;-75.616;2022-09-27T00:03:17;99131.31;;;13.98
74915;BMP280;63475;45.140;-75.616;2022-09-27T00:04:18;99113.66;;;13.86
74915;BMP280;63475;45.140;-75.616;2022-09-27T00:05:19;99131.03;;;13.96
74915;BMP280;63475;45.140;-75.616;2022-09-27T00:06:29;99144.59;;;13.98
74915;BMP280;63475;45.140;-75.616;2022-09-27T00:07:30;99144.75;;;13.95
74915;BMP280;63475;45.140;-75.616;2022-09-27T00:08:32;99145.50;;;13.95
74915;BMP280;63475;45.140;-75.616;2022-09-27T00:09:33;99135.03;;;13.92
74915;BMP280;63475;45.140;-75.616;2022-09-27T00:10:35;99123.13;;;13.78
74915;BMP280;63475;45.140;-75.616;2022-09-27T00:11:39;99140.06;;;13.89
74915;BMP280;63475;45.140;-75.616;2022-09-27T00:12:41;99137.56;;;13.86
74915;BMP280;63475;45.140;-75.616;2022-09-27T00:13:42;99140.66;;;13.84
74915;BMP280;63475;45.140;-75.616;2022-09-27T00:14:43;99120.06;;;13.70
74915;BMP280;63475;45.140;-75.616;2022-09-27T00:15:44;99139.63;;;13.82
74915;BMP280;63475;45.140;-75.616;2022-09-27T00:16:45;99135.47;;;13.81
74915;BMP280;63475;45.140;-75.616;2022-09-27T00:17:46;99138.59;;;13.79
74915;BMP280;63475;45.140;-75.616;2022-09-27T00:18:51;99136.41;;;13.78
74915;BMP280;63475;45.140;-75.616;2022-09-27T00:19:52;99137.56;;;13.77
74915;BMP280;63475;45.140;-75.616;2022-09-27T00:20:55;99142.28;;;13.73
74915;BMP280;63475;45.140;-75.616;2022-09-27T00:21:56;99144.22;;;13.72
74915;BMP280;63475;45.140;-75.616;2022-09-27T00:22:57;99141.72;;;13.69
74915;BMP280;63475;45.140;-75.616;2022-09-27T00:23:59;99132.31;;;13.59
74915;BMP280;63475;45.140;-75.616;2022-09-27T00:25:00;99145.72;;;13.64
74915;BMP280;63475;45.140;-75.616;2022-09-27T00:26:01;99150.88;;;13.68
74915;BMP280;63475;45.140;-75.616;2022-09-27T00:27:02;99148.66;;;13.66
74915;BMP280;63475;45.140;-75.616;2022-09-27T00:28:03;99134.13;;;13.53
74915;BMP280;63475;45.140;-75.616;2022-09-27T00:29:04;99137.03;;;13.55
74915;BMP280;63475;45.140;-75.616;2022-09-27T00:30:05;99146.59;;;13.61
74915;BMP280;63475;45.140;-75.616;2022-09-27T00:31:17;99142.91;;;13.49
74915;BMP280;63475;45.140;-75.616;2022-09-27T00:32:20;99148.81;;;13.54
74915;BMP280;63475;45.140;-75.616;2022-09-27T00:33:21;99142.50;;;13.51
74915;BMP280;63475;45.140;-75.616;2022-09-27T00:34:24;99132.63;;;13.42
74915;BMP280;63475;45.140;-75.616;2022-09-27T00:35:25;99144.56;;;13.47
74915;BMP280;63475;45.140;-75.616;2022-09-27T00:36:27;99137.34;;;13.38
74915;BMP280;63475;45.140;-75.616;2022-09-27T00:37:28;99146.75;;;13.48
74915;BMP280;63475;45.140;-75.616;2022-09-27T00:38:29;99141.75;;;13.41
74915;BMP280;63475;45.140;-75.616;2022-09-27T00:39:30;99145.59;;;13.40
74915;BMP280;63475;45.140;-75.616;2022-09-27T00:40:31;99134.72;;;13.29
74915;BMP280;63475;45.140;-75.616;2022-09-27T00:41:34;99154.16;;;13.44
74915;BMP280;63475;45.140;-75.616;2022-09-27T00:42:35;99151.63;;;13.41
74915;BMP280;63475;45.140;-75.616;2022-09-27T00:43:48;99148.69;;;13.39
74915;BMP280;63475;45.140;-75.616;2022-09-27T00:45:06;99156.19;;;13.40
74915;BMP280;63475;45.140;-75.616;2022-09-27T00:46:12;99157.09;;;13.37
74915;BMP280;63475;45.140;-75.616;2022-09-27T00:48:18;99163.59;;;13.36
74915;BMP280;63475;45.140;-75.616;2022-09-27T00:49:37;99157.97;;;13.34
74915;BMP280;63475;45.140;-75.616;2022-09-27T00:50:41;99157.97;;;13.34
74915;BMP280;63475;45.140;-75.616;2022-09-27T00:51:46;99167.88;;;13.34
74915;BMP280;63475;45.140;-75.616;2022-09-27T00:52:56;99162.56;;;13.34
74915;BMP280;63475;45.140;-75.616;2022-09-27T00:53:59;99160.34;;;13.32
74915;BMP280;63475;45.140;-75.616;2022-09-27T00:55:06;99154.91;;;13.27
74915;BMP280;63475;45.140;-75.616;2022-09-27T00:56:10;99145.34;;;13.20
74915;BMP280;63475;45.140;-75.616;2022-09-27T00:57:12;99154.44;;;13.28
74915;BMP280;63475;45.140;-75.616;2022-09-27T00:58:14;99156.38;;;13.28
74915;BMP280;63475;45.140;-75.616;2022-09-27T00:59:48;99159.00;;;13.28
74915;BMP280;63475;45.140;-75.616;2022-09-27T01:00:55;99154.19;;;13.26
74915;BMP280;63475;45.140;-75.616;2022-09-27T01:01:57;99152.41;;;13.23
74915;BMP280;63475;45.140;-75.616;2022-09-27T01:02:58;99149.16;;;13.19
74915;BMP280;63475;45.140;-75.616;2022-09-27T01:05:09;99167.13;;;13.24
74915;BMP280;63475;45.140;-75.616;2022-09-27T01:06:11;99153.88;;;13.24
74915;BMP280;63475;45.140;-75.616;2022-09-27T01:07:12;99163.44;;;13.22
74915;BMP280;63475;45.140;-75.616;2022-09-27T01:08:14;99163.44;;;13.22
74915;BMP280;63475;45.140;-75.616;2022-09-27T01:09:15;99151.66;;;13.13
74915;BMP280;63475;45.140;-75.616;2022-09-27T01:10:17;99167.44;;;13.17
74915;BMP280;63475;45.140;-75.616;2022-09-27T01:14:14;99168.00;;;13.12
74915;BMP280;63475;45.140;-75.616;2022-09-27T01:15:33;99161.97;;;13.11
74915;BMP280;63475;45.140;-75.616;2022-09-27T01:21:09;99163.00;;;13.05
74915;BMP280;63475;45.140;-75.616;2022-09-27T01:24:09;99168.28;;;13.05
74915;BMP280;63475;45.140;-75.616;2022-09-27T01:28:06;99173.03;;;13.01
74915;BMP280;63475;45.140;-75.616;2022-09-27T01:30:44;99162.84;;;12.90
74915;BMP280;63475;45.140;-75.616;2022-09-27T01:35:33;99175.06;;;12.88
74915;BMP280;63475;45.140;-75.616;2022-09-27T01:41:55;99179.75;;;12.74
74915;BMP280;63475;45.140;-75.616;2022-09-27T01:43:14;99186.22;;;12.73
74915;BMP280;63475;45.140;-75.616;2022-09-27T01:44:30;99188.88;;;12.73
74915;BMP280;63475;45.140;-75.616;2022-09-27T01:46:16;99178.38;;;12.70
74915;BMP280;63475;45.140;-75.616;2022-09-27T01:47:22;99178.09;;;12.68
74915;BMP280;63475;45.140;-75.616;2022-09-27T01:48:29;99175.91;;;12.66
74915;BMP280;63475;45.140;-75.616;2022-09-27T01:52:08;99177.94;;;12.62
74915;BMP280;63475;45.140;-75.616;2022-09-27T01:53:24;99169.97;;;12.53
74915;BMP280;63475;45.140;-75.616;2022-09-27T01:54:44;99184.56;;;12.58
74915;BMP280;63475;45.140;-75.616;2022-09-27T01:55:48;99181.16;;;12.57
74915;BMP280;63475;45.140;-75.616;2022-09-27T01:56:53;99183.50;;;12.55
74915;BMP280;63475;45.140;-75.616;2022-09-27T01:58:09;99188.81;;;12.55
74915;BMP280;63475;45.140;-75.616;2022-09-27T01:59:37;99190.88;;;12.51
74915;BMP280;63475;45.140;-75.616;2022-09-27T02:00:41;99168.59;;;12.40
74915;BMP280;63475;45.140;-75.616;2022-09-27T02:01:46;99191.59;;;12.52
74915;BMP280;63475;45.140;-75.616;2022-09-27T02:02:55;99180.94;;;12.43
74915;BMP280;63475;45.140;-75.616;2022-09-27T02:03:57;99190.56;;;12.49
74915;BMP280;63475;45.140;-75.616;2022-09-27T02:05:04;99189.81;;;12.49
74915;BMP280;63475;45.140;-75.616;2022-09-27T02:06:18;99180.22;;;12.42
74915;BMP280;63475;45.140;-75.616;2022-09-27T02:07:26;99188.91;;;12.43
74915;BMP280;63475;45.140;-75.616;2022-09-27T02:08:36;99189.63;;;12.43
74915;BMP280;63475;45.140;-75.616;2022-09-27T02:09:47;99179.94;;;12.40
74915;BMP280;63475;45.140;-75.616;2022-09-27T02:10:50;99178.13;;;12.37
74915;BMP280;63475;45.140;-75.616;2022-09-27T02:11:57;99185.66;;;12.39
74915;BMP280;63475;45.140;-75.616;2022-09-27T02:13:11;99186.41;;;12.39
74915;BMP280;63475;45.140;-75.616;2022-09-27T02:14:27;99167.81;;;12.30
74915;BMP280;63475;45.140;-75.616;2022-09-27T02:15:40;99188.59;;;12.41
74915;BMP280;63475;45.140;-75.616;2022-09-27T02:18:04;99192.25;;;12.34
74915;BMP280;63475;45.140;-75.616;2022-09-27T02:20:39;99178.38;;;12.21
74915;BMP280;63475;45.140;-75.616;2022-09-27T02:24:44;99190.75;;;12.24
74915;BMP280;63475;45.140;-75.616;2022-09-27T02:26:13;99186.94;;;12.25
74915;BMP280;63475;45.140;-75.616;2022-09-27T02:27:25;99184.56;;;12.27
74915;BMP280;63475;45.140;-75.616;2022-09-27T02:28:30;99187.22;;;12.27
74915;BMP280;63475;45.140;-75.616;2022-09-27T02:29:39;99175.56;;;12.15
74915;BMP280;63475;45.140;-75.616;2022-09-27T02:30:41;99190.00;;;12.23
74915;BMP280;63475;45.140;-75.616;2022-09-27T02:31:43;99177.34;;;12.18
74915;BMP280;63475;45.140;-75.616;2022-09-27T02:32:44;99186.03;;;12.19
74915;BMP280;63475;45.140;-75.616;2022-09-27T02:34:06;99187.19;;;12.18
74915;BMP280;63475;45.140;-75.616;2022-09-27T02:35:30;99187.47;;;12.20
74915;BMP280;63475;45.140;-75.616;2022-09-27T02:36:31;99188.69;;;12.19
74915;BMP280;63475;45.140;-75.616;2022-09-27T02:37:32;99191.31;;;12.19
74915;BMP280;63475;45.140;-75.616;2022-09-27T02:38:34;99195.88;;;12.18
74915;BMP280;63475;45.140;-75.616;2022-09-27T02:39:34;99186.97;;;12.12
74915;BMP280;63475;45.140;-75.616;2022-09-27T02:40:42;99192.78;;;12.20
74915;BMP280;63475;45.140;-75.616;2022-09-27T02:41:43;99195.13;;;12.18
74915;BMP280;63475;45.140;-75.616;2022-09-27T02:42:45;99191.75;;;12.17
74915;BMP280;63475;45.140;-75.616;2022-09-27T02:43:53;99192.00;;;12.10
74915;BMP280;63475;45.140;-75.616;2022-09-27T02:44:55;99197.16;;;12.14
74915;BMP280;63475;45.140;-75.616;2022-09-27T02:46:10;99202.47;;;12.14
74915;BMP280;63475;45.140;-75.616;2022-09-27T02:50:17;99204.59;;;12.06
74915;BMP280;63475;45.140;-75.616;2022-09-27T02:51:32;99194.00;;;12.06
74915;BMP280;63475;45.140;-75.616;2022-09-27T02:56:13;99199.63;;;12.08
74915;BMP280;63475;45.140;-75.616;2022-09-27T02:57:29;99202.41;;;12.05
74915;BMP280;63475;45.140;-75.616;2022-09-27T02:59:01;99199.44;;;12.03
74915;BMP280;63475;45.140;-75.616;2022-09-27T03:00:09;99201.03;;;12.00
74915;BMP280;63475;45.140;-75.616;2022-09-27T03:01:14;99196.19;;;11.98
74915;BMP280;63475;45.140;-75.616;2022-09-27T03:02:47;99194.28;;;11.99
74915;BMP280;63475;45.140;-75.616;2022-09-27T03:05:24;99205.00;;;11.95
74915;BMP280;63475;45.140;-75.616;2022-09-27T03:06:26;99192.75;;;11.89
74915;BMP280;63475;45.140;-75.616;2022-09-27T03:07:29;99183.34;;;11.88
74915;BMP280;63475;45.140;-75.616;2022-09-27T03:08:30;99192.94;;;11.94
74915;BMP280;63475;45.140;-75.616;2022-09-27T03:09:46;99199.13;;;12.01
74915;BMP280;63475;45.140;-75.616;2022-09-27T03:10:47;99143.34;;;11.64
74915;BMP280;63475;45.140;-75.616;2022-09-27T03:11:48;99192.78;;;11.98
74915;BMP280;63475;45.140;-75.616;2022-09-27T03:12:50;99202.22;;;11.99
74915;BMP280;63475;45.140;-75.616;2022-09-27T03:13:51;99199.28;;;11.97
74915;BMP280;63475;45.140;-75.616;2022-09-27T03:14:54;99201.34;;;12.02
74915;BMP280;63475;45.140;-75.616;2022-09-27T03:15:55;99193.09;;;12.00
74915;BMP280;63475;45.140;-75.616;2022-09-27T03:16:56;99199.13;;;12.01
74915;BMP280;63475;45.140;-75.616;2022-09-27T03:17:57;99196.06;;;12.02
74915;BMP280;63475;45.140;-75.616;2022-09-27T03:18:58;99186.47;;;11.95
74915;BMP280;63475;45.140;-75.616;2022-09-27T03:19:59;99188.38;;;11.95
74915;BMP280;63475;45.140;-75.616;2022-09-27T03:21:00;99198.09;;;11.98
74915;BMP280;63475;45.140;-75.616;2022-09-27T03:22:01;99195.91;;;11.96
74915;BMP280;63475;45.140;-75.616;2022-09-27T03:23:02;99191.78;;;11.95
74915;BMP280;63475;45.140;-75.616;2022-09-27T03:24:03;99193.69;;;11.95
74915;BMP280;63475;45.140;-75.616;2022-09-27T03:25:05;99188.50;;;11.91
74915;BMP280;63475;45.140;-75.616;2022-09-27T03:26:05;99192.63;;;11.92
74915;BMP280;63475;45.140;-75.616;2022-09-27T03:27:07;99200.88;;;11.94
74915;BMP280;63475;45.140;-75.616;2022-09-27T03:28:08;99197.81;;;11.96
74915;BMP280;63475;45.140;-75.616;2022-09-27T03:29:09;99196.63;;;11.97
74915;BMP280;63475;45.140;-75.616;2022-09-27T03:30:12;99208.69;;;11.98
74915;BMP280;63475;45.140;-75.616;2022-09-27T03:31:13;99192.94;;;11.94
74915;BMP280;63475;45.140;-75.616;2022-09-27T03:32:14;99185.09;;;11.91
74915;BMP280;63475;45.140;-75.616;2022-09-27T03:33:15;99198.53;;;11.96
74915;BMP280;63475;45.140;-75.616;2022-09-27T03:34:16;99192.75;;;11.89
74915;BMP280;63475;45.140;-75.616;2022-09-27T03:35:17;99176.41;;;11.81
74915;BMP280;63475;45.140;-75.616;2022-09-27T03:36:18;99198.22;;;11.94
74915;BMP280;63475;45.140;-75.616;2022-09-27T03:37:19;99183.66;;;11.90
74915;BMP280;63475;45.140;-75.616;2022-09-27T03:38:20;99191.16;;;11.91
74915;BMP280;63475;45.140;-75.616;2022-09-27T03:39:21;99191.44;;;11.93
74915;BMP280;63475;45.140;-75.616;2022-09-27T03:40:21;99193.78;;;11.91
74915;BMP280;63475;45.140;-75.616;2022-09-27T03:41:22;99178.16;;;11.84
74915;BMP280;63475;45.140;-75.616;2022-09-27T03:42:23;99193.06;;;11.91
74915;BMP280;63475;45.140;-75.616;2022-09-27T03:43:24;99184.94;;;11.85
74915;BMP280;63475;45.140;-75.616;2022-09-27T03:44:25;99192.63;;;11.92
74915;BMP280;63475;45.140;-75.616;2022-09-27T03:45:26;99187.16;;;11.87
74915;BMP280;63475;45.140;-75.616;2022-09-27T03:46:27;99189.31;;;11.79
74915;BMP280;63475;45.140;-75.616;2022-09-27T03:47:28;99196.16;;;11.89
74915;BMP280;63475;45.140;-75.616;2022-09-27T03:48:29;99193.63;;;11.86
74915;BMP280;63475;45.140;-75.616;2022-09-27T03:49:30;99204.09;;;11.89
74915;BMP280;63475;45.140;-75.616;2022-09-27T03:50:32;99182.53;;;11.78
74915;BMP280;63475;45.140;-75.616;2022-09-27T03:51:33;99190.22;;;11.85
74915;BMP280;63475;45.140;-75.616;2022-09-27T03:52:34;99195.41;;;11.89
74915;BMP280;63475;45.140;-75.616;2022-09-27T03:53:35;99194.97;;;11.90
74915;BMP280;63475;45.140;-75.616;2022-09-27T03:54:36;99193.50;;;11.89
74915;BMP280;63475;45.140;-75.616;2022-09-27T03:55:37;99199.41;;;11.93
74915;BMP280;63475;45.140;-75.616;2022-09-27T03:56:38;99174.50;;;11.82
74915;BMP280;63475;45.140;-75.616;2022-09-27T03:57:43;99188.38;;;11.95
74915;BMP280;63475;45.140;-75.616;2022-09-27T03:58:44;99193.69;;;11.95
74915;BMP280;63475;45.140;-75.616;2022-09-27T03:59:45;99186.16;;;11.93
74915;BMP280;63475;45.140;-75.616;2022-09-27T04:00:48;99189.22;;;11.92
74915;BMP280;63475;45.140;-75.616;2022-09-27T04:01:49;99193.69;;;11.95
74915;BMP280;63475;45.140;-75.616;2022-09-27T04:02:50;99195.16;;;11.96
74915;BMP280;63475;45.140;-75.616;2022-09-27T04:03:50;99194.72;;;11.97
74915;BMP280;63475;45.140;-75.616;2022-09-27T04:04:51;99193.53;;;11.98
74915;BMP280;63475;45.140;-75.616;2022-09-27T04:05:53;99186.47;;;11.95
74915;BMP280;63475;45.140;-75.616;2022-09-27T04:06:54;99169.06;;;11.85
74915;BMP280;63475;45.140;-75.616;2022-09-27T04:07:56;99186.47;;;11.95
74915;BMP280;63475;45.140;-75.616;2022-09-27T04:08:57;99191.78;;;11.95
74915;BMP280;63475;45.140;-75.616;2022-09-27T04:09:58;99180.00;;;11.96
74915;BMP280;63475;45.140;-75.616;2022-09-27T04:10:59;99183.81;;;11.95
74915;BMP280;63475;45.140;-75.616;2022-09-27T04:12:00;99177.78;;;11.95
74915;BMP280;63475;45.140;-75.616;2022-09-27T04:13:01;99187.50;;;11.98
74915;BMP280;63475;45.140;-75.616;2022-09-27T04:14:02;99182.34;;;11.94
74915;BMP280;63475;45.140;-75.616;2022-09-27T04:15:05;99160.38;;;11.85
74915;BMP280;63475;45.140;-75.616;2022-09-27T04:16:07;99175.88;;;11.95
74915;BMP280;63475;45.140;-75.616;2022-09-27T04:17:08;99172.50;;;11.95
74915;BMP280;63475;45.140;-75.616;2022-09-27T04:18:09;99172.06;;;11.96
74915;BMP280;63475;45.140;-75.616;2022-09-27T04:19:10;99186.03;;;11.97
74915;BMP280;63475;45.140;-75.616;2022-09-27T04:20:11;99171.44;;;11.92
74915;BMP280;63475;45.140;-75.616;2022-09-27T04:21:12;99177.38;;;11.96
74915;BMP280;63475;45.140;-75.616;2022-09-27T04:22:13;99183.81;;;11.95
74915;BMP280;63475;45.140;-75.616;2022-09-27T04:23:15;99167.63;;;11.93
74915;BMP280;63475;45.140;-75.616;2022-09-27T04:24:16;99174.72;;;11.96
74915;BMP280;63475;45.140;-75.616;2022-09-27T04:25:17;99175.88;;;11.95
74915;BMP280;63475;45.140;-75.616;2022-09-27T04:26:18;99174.41;;;11.94
74915;BMP280;63475;45.140;-75.616;2022-09-27T04:27:20;99160.69;;;11.87
74915;BMP280;63475;45.140;-75.616;2022-09-27T04:28:24;99179.13;;;11.99
74915;BMP280;63475;45.140;-75.616;2022-09-27T04:29:25;99174.56;;;12.00
74915;BMP280;63475;45.140;-75.616;2022-09-27T04:30:27;99180.28;;;11.98
74915;BMP280;63475;45.140;-75.616;2022-09-27T04:31:28;99173.56;;;11.97
74915;BMP280;63475;45.140;-75.616;2022-09-27T04:32:29;99177.66;;;11.98
74915;BMP280;63475;45.140;-75.616;2022-09-27T04:33:30;99172.34;;;11.98
74915;BMP280;63475;45.140;-75.616;2022-09-27T04:34:31;99163.50;;;11.92
74915;BMP280;63475;45.140;-75.616;2022-09-27T04:35:50;99182.94;;;11.98
74915;BMP280;63475;45.140;-75.616;2022-09-27T04:37:10;99176.19;;;11.97
74915;BMP280;63475;45.140;-75.616;2022-09-27T04:38:11;99184.75;;;12.02
74915;BMP280;63475;45.140;-75.616;2022-09-27T04:39:13;99175.00;;;11.98
74915;BMP280;63475;45.140;-75.616;2022-09-27T04:40:14;99172.34;;;11.98
74915;BMP280;63475;45.140;-75.616;2022-09-27T04:41:16;99180.28;;;11.98
74915;BMP280;63475;45.140;-75.616;2022-09-27T04:42:17;99163.81;;;11.94
74915;BMP280;63475;45.140;-75.616;2022-09-27T04:43:18;99175.63;;;12.03
74915;BMP280;63475;45.140;-75.616;2022-09-27T04:44:19;99182.41;;;12.04
74915;BMP280;63475;45.140;-75.616;2022-09-27T04:45:20;99178.28;;;12.03
74915;BMP280;63475;45.140;-75.616;2022-09-27T04:46:21;99173.25;;;11.95
74915;BMP280;63475;45.140;-75.616;2022-09-27T04:47:22;99183.41;;;12.06
74915;BMP280;63475;45.140;-75.616;2022-09-27T04:48:23;99164.13;;;11.96
74915;BMP280;63475;45.140;-75.616;2022-09-27T04:49:24;99180.34;;;12.08
74915;BMP280;63475;45.140;-75.616;2022-09-27T04:50:25;99171.22;;;12.09
74915;BMP280;63475;45.140;-75.616;2022-09-27T04:51:26;99128.34;;;11.83
74915;BMP280;63475;45.140;-75.616;2022-09-27T04:52:27;99176.84;;;12.11
74915;BMP280;63475;45.140;-75.616;2022-09-27T04:53:28;99170.38;;;12.12
74915;BMP280;63475;45.140;-75.616;2022-09-27T04:54:29;99170.38;;;12.12
74915;BMP280;63475;45.140;-75.616;2022-09-27T04:55:31;99169.94;;;12.13
74915;BMP280;63475;45.140;-75.616;2022-09-27T04:56:31;99171.44;;;12.14
74915;BMP280;63475;45.140;-75.616;2022-09-27T04:57:32;99161.81;;;12.08
74915;BMP280;63475;45.140;-75.616;2022-09-27T04:58:34;99171.09;;;12.12
74915;BMP280;63475;45.140;-75.616;2022-09-27T04:59:35;99178.19;;;12.15
74915;BMP280;63475;45.140;-75.616;2022-09-27T05:00:35;99169.53;;;12.15
74915;BMP280;63475;45.140;-75.616;2022-09-27T05:01:36;99171.75;;;12.16
74915;BMP280;63475;45.140;-75.616;2022-09-27T05:02:37;99174.69;;;12.18
74915;BMP280;63475;45.140;-75.616;2022-09-27T05:03:38;99171.00;;;12.16
74915;BMP280;63475;45.140;-75.616;2022-09-27T05:04:39;99173.22;;;12.17
74915;BMP280;63475;45.140;-75.616;2022-09-27T05:05:40;99170.16;;;12.19
74915;BMP280;63475;45.140;-75.616;2022-09-27T05:06:41;99171.59;;;12.20
74915;BMP280;63475;45.140;-75.616;2022-09-27T05:07:42;99175.72;;;12.21
74915;BMP280;63475;45.140;-75.616;2022-09-27T05:08:43;99163.91;;;12.13
74915;BMP280;63475;45.140;-75.616;2022-09-27T05:09:45;99174.56;;;12.22
74915;BMP280;63475;45.140;-75.616;2022-09-27T05:10:46;99159.16;;;12.08
74915;BMP280;63475;45.140;-75.616;2022-09-27T05:11:47;99173.06;;;12.21
74915;BMP280;63475;45.140;-75.616;2022-09-27T05:12:48;99173.06;;;12.21
74915;BMP280;63475;45.140;-75.616;2022-09-27T05:13:49;99164.97;;;12.15
74915;BMP280;63475;45.140;-75.616;2022-09-27T05:14:50;99136.03;;;11.99
74915;BMP280;63475;45.140;-75.616;2022-09-27T05:15:51;99172.34;;;12.20
74915;BMP280;63475;45.140;-75.616;2022-09-27T05:16:53;99179.00;;;12.25
74915;BMP280;63475;45.140;-75.616;2022-09-27T05:17:54;99171.03;;;12.25
74915;BMP280;63475;45.140;-75.616;2022-09-27T05:18:55;99178.09;;;12.28
74915;BMP280;63475;45.140;-75.616;2022-09-27T05:19:57;99171.31;;;12.27
74915;BMP280;63475;45.140;-75.616;2022-09-27T05:20:58;99166.91;;;12.24
74915;BMP280;63475;45.140;-75.616;2022-09-27T05:21:59;99168.66;;;12.18
74915;BMP280;63475;45.140;-75.616;2022-09-27T05:23:00;99165.75;;;12.25
74915;BMP280;63475;45.140;-75.616;2022-09-27T05:24:02;99171.31;;;12.27
74915;BMP280;63475;45.140;-75.616;2022-09-27T05:25:04;99176.63;;;12.27
74915;BMP280;63475;45.140;-75.616;2022-09-27T05:26:06;99178.53;;;12.26
74915;BMP280;63475;45.140;-75.616;2022-09-27T05:27:11;99184.56;;;12.27
74915;BMP280;63475;45.140;-75.616;2022-09-27T05:28:12;99175.88;;;12.26
74915;BMP280;63475;45.140;-75.616;2022-09-27T05:29:13;99185.31;;;12.27
74915;BMP280;63475;45.140;-75.616;2022-09-27T05:30:14;99178.09;;;12.28
74915;BMP280;63475;45.140;-75.616;2022-09-27T05:31:15;99179.59;;;12.29
74915;BMP280;63475;45.140;-75.616;2022-09-27T05:32:16;99169.56;;;12.24
74915;BMP280;63475;45.140;-75.616;2022-09-27T05:33:17;99167.78;;;12.21
74915;BMP280;63475;45.140;-75.616;2022-09-27T05:34:18;99175.88;;;12.26
74915;BMP280;63475;45.140;-75.616;2022-09-27T05:35:20;99181.91;;;12.27
74915;BMP280;63475;45.140;-75.616;2022-09-27T05:36:21;99157.75;;;12.16
74915;BMP280;63475;45.140;-75.616;2022-09-27T05:37:23;99169.13;;;12.25
74915;BMP280;63475;45.140;-75.616;2022-09-27T05:38:24;99169.13;;;12.25
74915;BMP280;63475;45.140;-75.616;2022-09-27T05:39:25;99166.03;;;12.27
74915;BMP280;63475;45.140;-75.616;2022-09-27T05:40:26;99160.00;;;12.26
74915;BMP280;63475;45.140;-75.616;2022-09-27T05:41:28;99167.81;;;12.30
74915;BMP280;63475;45.140;-75.616;2022-09-27T05:42:32;99152.19;;;12.23
74915;BMP280;63475;45.140;-75.616;2022-09-27T05:43:35;99170.16;;;12.28
74915;BMP280;63475;45.140;-75.616;2022-09-27T05:44:36;99162.94;;;12.28
74915;BMP280;63475;45.140;-75.616;2022-09-27T05:45:38;99168.25;;;12.28
74915;BMP280;63475;45.140;-75.616;2022-09-27T05:46:39;99160.88;;;12.23
74915;BMP280;63475;45.140;-75.616;2022-09-27T05:47:40;99171.19;;;12.30
74915;BMP280;63475;45.140;-75.616;2022-09-27T05:48:41;99163.38;;;12.27
74915;BMP280;63475;45.140;-75.616;2022-09-27T05:49:42;99153.38;;;12.22
74915;BMP280;63475;45.140;-75.616;2022-09-27T05:50:43;99166.66;;;12.31
74915;BMP280;63475;45.140;-75.616;2022-09-27T05:51:44;99175.75;;;12.30
74915;BMP280;63475;45.140;-75.616;2022-09-27T05:52:45;99169.00;;;12.29
74915;BMP280;63475;45.140;-75.616;2022-09-27T05:53:46;99173.84;;;12.30
74915;BMP280;63475;45.140;-75.616;2022-09-27T05:54:47;99170.78;;;12.32
74915;BMP280;63475;45.140;-75.616;2022-09-27T05:55:48;99170.47;;;12.30
74915;BMP280;63475;45.140;-75.616;2022-09-27T05:56:49;99176.50;;;12.30
74915;BMP280;63475;45.140;-75.616;2022-09-27T05:57:54;99170.47;;;12.30
74915;BMP280;63475;45.140;-75.616;2022-09-27T05:58:56;99174.28;;;12.29
74915;BMP280;63475;45.140;-75.616;2022-09-27T05:59:57;99175.44;;;12.28
74915;BMP280;63475;45.140;-75.616;2022-09-27T06:00:59;99169.13;;;12.25
74915;BMP280;63475;45.140;-75.616;2022-09-27T06:02:00;99164.09;;;12.18
74915;BMP280;63475;45.140;-75.616;2022-09-27T06:03:03;99176.94;;;12.29
74915;BMP280;63475;45.140;-75.616;2022-09-27T06:04:04;99171.31;;;12.27
74915;BMP280;63475;45.140;-75.616;2022-09-27T06:05:05;99166.91;;;12.24
74915;BMP280;63475;45.140;-75.616;2022-09-27T06:06:07;99173.13;;;12.30
74915;BMP280;63475;45.140;-75.616;2022-09-27T06:07:10;99172.38;;;12.29
74915;BMP280;63475;45.140;-75.616;2022-09-27T06:08:11;99164.28;;;12.24
74915;BMP280;63475;45.140;-75.616;2022-09-27T06:09:14;99173.84;;;12.30
74915;BMP280;63475;45.140;-75.616;2022-09-27T06:10:17;99176.06;;;12.32
74915;BMP280;63475;45.140;-75.616;2022-09-27T06:11:18;99170.78;;;12.32
74915;BMP280;63475;45.140;-75.616;2022-09-27T06:12:19;99171.63;;;12.29
74915;BMP280;63475;45.140;-75.616;2022-09-27T06:13:20;99161.31;;;12.22
74915;BMP280;63475;45.140;-75.616;2022-09-27T06:14:21;99164.56;;;12.26
74915;BMP280;63475;45.140;-75.616;2022-09-27T06:15:22;99164.44;;;12.29
74915;BMP280;63475;45.140;-75.616;2022-09-27T06:16:23;99169.28;;;12.31
74915;BMP280;63475;45.140;-75.616;2022-09-27T06:17:24;99158.09;;;12.27
74915;BMP280;63475;45.140;-75.616;2022-09-27T06:18:25;99137.88;;;12.11
74915;BMP280;63475;45.140;-75.616;2022-09-27T06:19:25;99162.53;;;12.30
74915;BMP280;63475;45.140;-75.616;2022-09-27T06:20:26;99164.44;;;12.29
74915;BMP280;63475;45.140;-75.616;2022-09-27T06:21:27;99161.66;;;12.33
74915;BMP280;63475;45.140;-75.616;2022-09-27T06:22:28;99165.75;;;12.34
74915;BMP280;63475;45.140;-75.616;2022-09-27T06:23:30;99160.78;;;12.36
74915;BMP280;63475;45.140;-75.616;2022-09-27T06:24:34;99157.81;;;12.34
74915;BMP280;63475;45.140;-75.616;2022-09-27T06:25:35;99158.56;;;12.34
74915;BMP280;63475;45.140;-75.616;2022-09-27T06:26:36;99155.16;;;12.34
74915;BMP280;63475;45.140;-75.616;2022-09-27T06:27:37;99156.63;;;12.35
74915;BMP280;63475;45.140;-75.616;2022-09-27T06:28:38;99134.53;;;12.20
74915;BMP280;63475;45.140;-75.616;2022-09-27T06:29:39;99152.66;;;12.30
74915;BMP280;63475;45.140;-75.616;2022-09-27T06:30:45;99155.16;;;12.34
74915;BMP280;63475;45.140;-75.616;2022-09-27T06:31:46;99151.34;;;12.35
74915;BMP280;63475;45.140;-75.616;2022-09-27T06:32:47;99153.25;;;12.34
74915;BMP280;63475;45.140;-75.616;2022-09-27T06:33:48;99154.31;;;12.37
74915;BMP280;63475;45.140;-75.616;2022-09-27T06:34:49;99150.19;;;12.36
74915;BMP280;63475;45.140;-75.616;2022-09-27T06:35:50;99151.06;;;12.33
74915;BMP280;63475;45.140;-75.616;2022-09-27T06:36:51;99158.84;;;12.36